| time (UTC) | temp C | wind direction | speed KPH | gust KPH | rain 1hr cm | rain 24hr cm | rain mn cm | humidity % | barometer mb |
| 20260504000334 | 15 | 347 | 3.2 | 19.3 | 0.23 | 1.80 | 1.50 | 95 | 1014.8 |
| 20260503235835 | 15 | 18 | 3.2 | 12.9 | 0.23 | 1.80 | 1.50 | 95 | 1015.1 |
| 20260503235334 | 15 | 235 | 1.6 | 8.0 | 0.23 | 1.78 | 1.47 | 95 | 1014.8 |
| 20260503234834 | 15 | 313 | 1.6 | 8.0 | 0.25 | 1.78 | 1.47 | 95 | 1015.1 |
| 20260503234333 | 15 | 56 | 0.0 | 3.2 | 0.25 | 1.73 | 1.45 | 95 | 1015.2 |
| 20260503233832 | 15 | 52 | 0.0 | 8.0 | 0.25 | 1.65 | 1.37 | 95 | 1015.2 |
| 20260503233330 | 15 | 344 | 1.6 | 8.0 | 0.28 | 1.65 | 1.35 | 95 | 1015.2 |
| 20260503232827 | 15 | 64 | 1.6 | 12.9 | 0.33 | 1.63 | 1.32 | 95 | 1015.1 |
| 20260503232326 | 15 | 271 | 3.2 | 12.9 | 0.51 | 1.63 | 1.32 | 95 | 1015.3 |
| 20260503231826 | 15 | 265 | 4.8 | 16.1 | 0.51 | 1.60 | 1.30 | 95 | 1015.1 |
| 20260503231326 | 15 | 296 | 4.8 | 17.7 | 0.53 | 1.57 | 1.27 | 95 | 1015.2 |
| 20260503230827 | 15 | 267 | 3.2 | 17.7 | 0.66 | 1.57 | 1.27 | 95 | 1015.2 |
| 20260503230327 | 15 | 354 | 1.6 | 12.9 | 0.69 | 1.57 | 1.27 | 95 | 1015.2 |
| 20260503225826 | 15 | 37 | 1.6 | 12.9 | 0.69 | 1.55 | 1.27 | 95 | 1015.2 |
| 20260503225326 | 15 | 327 | 1.6 | 4.8 | 0.66 | 1.55 | 1.24 | 95 | 1015.2 |
| 20260503224826 | 15 | 94 | 0.0 | 9.7 | 0.64 | 1.52 | 1.22 | 95 | 1015.3 |
| 20260503224326 | 15 | 316 | 1.6 | 14.5 | 0.58 | 1.45 | 1.17 | 95 | 1015.2 |
| 20260503223825 | 14 | 94 | 1.6 | 14.5 | 0.51 | 1.40 | 1.09 | 95 | 1015.2 |
| 20260503223326 | 15 | 41 | 1.6 | 8.0 | 0.48 | 1.37 | 1.07 | 95 | 1015.1 |
| 20260503222827 | 14 | 310 | 1.6 | 8.0 | 0.43 | 1.30 | 0.99 | 95 | 1015.1 |
| 20260503222325 | 14 | 12 | 1.6 | 8.0 | 0.23 | 1.12 | 0.84 | 95 | 1015.1 |
| 20260503221826 | 15 | 93 | 1.6 | 9.7 | 0.20 | 1.09 | 0.79 | 94 | 1015.2 |
| 20260503221326 | 15 | 292 | 1.6 | 12.9 | 0.15 | 1.04 | 0.74 | 94 | 1015.1 |
| 20260503220826 | 15 | 40 | 3.2 | 12.9 | 0.05 | 0.91 | 0.64 | 94 | 1015.1 |
| 20260503220327 | 15 | 58 | 3.2 | 9.7 | 0.03 | 0.89 | 0.61 | 94 | 1015.1 |
| 20260503215826 | 15 | 290 | 1.6 | 8.0 | 0.00 | 0.89 | 0.58 | 94 | 1015.0 |
| 20260503215326 | 15 | 157 | 3.2 | 11.3 | 0.00 | 0.89 | 0.58 | 94 | 1015.0 |
| 20260503214826 | 14 | 81 | 4.8 | 12.9 | 0.00 | 0.89 | 0.58 | 95 | 1015.1 |
| 20260503214325 | 14 | 43 | 3.2 | 12.9 | 0.00 | 0.89 | 0.58 | 95 | 1015.1 |
| 20260503214046 | 14 | 50 | 1.6 | 12.9 | 0.03 | 0.89 | 0.58 | 95 | 1015.0 |
| 20260503213324 | 14 | 288 | 3.2 | 12.9 | 0.03 | 0.89 | 0.58 | 95 | 1015.0 |
| 20260503212824 | 14 | 337 | 3.2 | 11.3 | 0.03 | 0.91 | 0.58 | 95 | 1014.8 |
| 20260503212322 | 14 | 31 | 3.2 | 11.3 | 0.03 | 0.91 | 0.58 | 95 | 1014.8 |
| 20260503211821 | 14 | 339 | 3.2 | 12.9 | 0.05 | 0.91 | 0.58 | 95 | 1014.7 |
| 20260503211322 | 14 | 29 | 3.2 | 12.9 | 0.05 | 0.91 | 0.58 | 95 | 1014.8 |
| 20260503210821 | 14 | 44 | 3.2 | 11.3 | 0.05 | 0.91 | 0.58 | 95 | 1014.7 |
| 20260503210321 | 14 | 83 | 1.6 | 11.3 | 0.05 | 0.91 | 0.58 | 95 | 1014.7 |
| 20260503205807 | 14 | 51 | 0.0 | 9.7 | 0.05 | 0.91 | 0.58 | 96 | 1014.6 |
| 20260503205301 | 14 | 312 | 1.6 | 9.7 | 0.05 | 0.91 | 0.58 | 96 | 1014.6 |
| 20260503204800 | 14 | 349 | 1.6 | 8.0 | 0.05 | 0.91 | 0.58 | 96 | 1014.5 |
| 20260503204249 | 14 | 299 | 1.6 | 6.4 | 0.13 | 0.91 | 0.58 | 96 | 1014.5 |
| 20260503203749 | 14 | 285 | 1.6 | 8.0 | 0.13 | 0.89 | 0.56 | 96 | 1014.5 |
| 20260503203249 | 13 | 43 | 0.0 | 8.0 | 0.13 | 0.89 | 0.56 | 96 | 1014.4 |
| 20260503202747 | 13 | 337 | 0.0 | 1.6 | 0.13 | 0.89 | 0.56 | 95 | 1014.4 |
| 20260503202243 | 13 | 55 | 0.0 | 1.6 | 0.15 | 0.89 | 0.56 | 95 | 1014.3 |
| 20260503201744 | 13 | 63 | 0.0 | 1.6 | 0.13 | 0.89 | 0.53 | 95 | 1014.2 |
| 20260503201242 | 13 | 63 | 0.0 | 4.8 | 0.13 | 0.89 | 0.53 | 95 | 1014.4 |
| 20260503200743 | 13 | 339 | 0.0 | 4.8 | 0.13 | 0.89 | 0.53 | 95 | 1014.5 |
| 20260503200243 | 13 | 78 | 0.0 | 3.2 | 0.13 | 0.89 | 0.53 | 95 | 1014.3 |
| 20260503195744 | 13 | 301 | 0.0 | 4.8 | 0.13 | 0.89 | 0.53 | 95 | 1014.5 |
| 20260503195458 | 13 | 40 | 0.0 | 4.8 | 0.10 | 0.86 | 0.51 | 95 | 1014.4 |
| 20260503194959 | 13 | 22 | 1.6 | 9.7 | 0.10 | 0.86 | 0.51 | 95 | 1014.5 |
| 20260503194239 | 13 | 355 | 1.6 | 9.7 | 0.05 | 0.79 | 0.46 | 95 | 1014.6 |
| 20260503193742 | 13 | 40 | 1.6 | 9.7 | 0.03 | 0.79 | 0.46 | 95 | 1014.5 |
| 20260503193241 | 13 | 254 | 1.6 | 8.0 | 0.03 | 0.79 | 0.43 | 95 | 1014.4 |
| 20260503192741 | 13 | 28 | 3.2 | 11.3 | 0.03 | 0.79 | 0.43 | 95 | 1014.4 |
| 20260503192240 | 13 | 338 | 3.2 | 11.3 | 0.00 | 0.76 | 0.43 | 95 | 1014.5 |
| 20260503191741 | 13 | 347 | 3.2 | 12.9 | 0.00 | 0.76 | 0.43 | 95 | 1014.6 |
| 20260503191240 | 13 | 349 | 3.2 | 12.9 | 0.00 | 0.76 | 0.43 | 95 | 1014.5 |
| 20260503190734 | 13 | 29 | 1.6 | 6.4 | 0.00 | 0.76 | 0.43 | 95 | 1014.6 |
| 20260503190451 | 13 | 44 | 1.6 | 6.4 | 0.03 | 0.76 | 0.43 | 95 | 1014.7 |
| 20260503185721 | 13 | 39 | 1.6 | 6.4 | 0.03 | 0.76 | 0.43 | 95 | 1014.7 |
| 20260503185217 | 13 | 3 | 1.6 | 9.7 | 0.03 | 0.76 | 0.43 | 95 | 1014.7 |
| 20260503184710 | 14 | 51 | 3.2 | 11.3 | 0.03 | 0.76 | 0.43 | 95 | 1014.6 |
| 20260503184428 | 14 | 67 | 3.2 | 11.3 | 0.03 | 0.76 | 0.43 | 95 | 1014.7 |
| 20260503183659 | 14 | 14 | 1.6 | 11.3 | 0.03 | 0.76 | 0.43 | 95 | 1015.0 |
| 20260503183153 | 14 | 284 | 1.6 | 8.0 | 0.03 | 0.76 | 0.43 | 95 | 1015.1 |
| 20260503182648 | 14 | 28 | 1.6 | 8.0 | 0.03 | 0.76 | 0.43 | 95 | 1015.1 |
| 20260503182140 | 14 | 353 | 1.6 | 9.7 | 0.03 | 0.76 | 0.43 | 95 | 1015.1 |
| 20260503181635 | 14 | 55 | 1.6 | 9.7 | 0.05 | 0.76 | 0.43 | 95 | 1015.2 |
| 20260503181128 | 14 | 299 | 1.6 | 8.0 | 0.10 | 0.76 | 0.43 | 95 | 1015.2 |
| 20260503180623 | 14 | 23 | 0.0 | 8.0 | 0.15 | 0.76 | 0.43 | 95 | 1015.3 |
| 20260503180341 | 14 | 5 | 0.0 | 6.4 | 0.13 | 0.74 | 0.41 | 95 | 1015.2 |
| 20260503175609 | 14 | 322 | 0.0 | 4.8 | 0.15 | 0.74 | 0.41 | 95 | 1015.3 |
| 20260503175328 | 14 | 306 | 1.6 | 9.7 | 0.15 | 0.74 | 0.41 | 95 | 1015.3 |
| 20260503174557 | 14 | 39 | 1.6 | 9.7 | 0.15 | 0.74 | 0.41 | 95 | 1015.3 |
| 20260503174052 | 14 | 276 | 1.6 | 12.9 | 0.15 | 0.74 | 0.41 | 95 | 1015.3 |
| 20260503173545 | 14 | 343 | 3.2 | 12.9 | 0.15 | 0.74 | 0.41 | 95 | 1015.3 |
| 20260503173039 | 14 | 40 | 3.2 | 14.5 | 0.15 | 0.74 | 0.41 | 95 | 1015.2 |
| 20260503172533 | 14 | 294 | 4.8 | 14.5 | 0.18 | 0.74 | 0.41 | 95 | 1015.1 |
| 20260503172027 | 14 | 47 | 3.2 | 14.5 | 0.15 | 0.71 | 0.41 | 95 | 1015.1 |
| 20260503171521 | 14 | 10 | 4.8 | 14.5 | 0.15 | 0.71 | 0.36 | 95 | 1015.3 |
| 20260503171016 | 14 | 36 | 3.2 | 12.9 | 0.10 | 0.64 | 0.33 | 95 | 1015.5 |
| 20260503170509 | 14 | 8 | 3.2 | 14.5 | 0.10 | 0.61 | 0.28 | 95 | 1015.6 |
| 20260503150751 | 15 | 26 | 3.2 | 9.7 | 0.13 | 0.48 | 0.15 | 94 | 1016.5 |
| 20260503150508 | 15 | 78 | 3.2 | 9.7 | 0.13 | 0.48 | 0.15 | 94 | 1016.5 |
| 20260503140246 | 15 | 28 | 1.6 | 9.7 | 0.05 | 0.36 | 0.03 | 94 | 1016.9 |
| 20260503131151 | 15 | 342 | 0.0 | 6.4 | 0.03 | 0.33 | 0.33 | 92 | 1017.1 |
| 20260503130646 | 15 | 26 | 0.0 | 6.4 | 0.03 | 0.33 | 0.33 | 92 | 1017.2 |
| 20260503130139 | 15 | 40 | 1.6 | 6.4 | 0.03 | 0.33 | 0.33 | 92 | 1017.2 |
| 20260503110539 | 15 | 47 | 0.0 | 0.0 | 0.03 | 0.30 | 0.30 | 94 | 1017.6 |
| 20260503090504 | 15 | 292 | 0.0 | 6.4 | 0.08 | 0.13 | 0.13 | 91 | 1017.6 |
| 20260503081417 | 16 | 42 | 0.0 | 0.0 | 0.00 | 0.05 | 0.05 | 89 | 1017.4 |
| 20260503080917 | 16 | 349 | 0.0 | 0.0 | 0.00 | 0.05 | 0.05 | 89 | 1017.4 |
| 20260503080417 | 16 | 349 | 0.0 | 0.0 | 0.00 | 0.05 | 0.05 | 88 | 1017.4 |
| 20260503072408 | 16 | 316 | 0.0 | 0.0 | 0.00 | 0.05 | 0.05 | 85 | 1017.3 |
| 20260503071905 | 17 | 322 | 0.0 | 0.0 | 0.00 | 0.05 | 0.05 | 85 | 1017.2 |
| 20260503071403 | 17 | 38 | 0.0 | 0.0 | 0.00 | 0.05 | 0.05 | 84 | 1017.2 |
| 20260503070902 | 17 | 31 | 0.0 | 0.0 | 0.00 | 0.05 | 0.05 | 83 | 1017.2 |
| 20260503070622 | 17 | 239 | 0.0 | 0.0 | 0.00 | 0.05 | 0.05 | 82 | 1017.3 |
| 20260503054813 | 19 | 294 | 0.0 | 1.6 | 0.00 | 0.05 | 0.05 | 72 | 1017.4 |
| 20260503054309 | 19 | 294 | 0.0 | 1.6 | 0.00 | 0.05 | 0.05 | 71 | 1017.3 |
| 20260503053807 | 19 | 288 | 0.0 | 1.6 | 0.00 | 0.05 | 0.05 | 70 | 1017.3 |
| 20260503053306 | 20 | 291 | 0.0 | 1.6 | 0.00 | 0.05 | 0.05 | 69 | 1017.4 |
| 20260503052806 | 20 | 308 | 0.0 | 0.0 | 0.00 | 0.05 | 0.05 | 68 | 1017.4 |
| 20260503052305 | 20 | 339 | 0.0 | 1.6 | 0.00 | 0.05 | 0.05 | 67 | 1017.4 |
| 20260503052028 | 20 | 246 | 0.0 | 1.6 | 0.00 | 0.05 | 0.05 | 68 | 1017.4 |
| 20260503051300 | 20 | 318 | 0.0 | 6.4 | 0.00 | 0.05 | 0.05 | 70 | 1017.5 |
| 20260503050801 | 20 | 229 | 1.6 | 11.3 | 0.00 | 0.05 | 0.05 | 70 | 1017.7 |
| 20260503050258 | 20 | 299 | 0.0 | 11.3 | 0.00 | 0.05 | 0.05 | 68 | 1017.8 |
| 20260503050016 | 20 | 281 | 0.0 | 6.4 | 0.00 | 0.05 | 0.05 | 66 | 1017.7 |
| 20260503045259 | 20 | 339 | 1.6 | 9.7 | 0.00 | 0.05 | 0.05 | 66 | 1017.7 |
| 20260503044756 | 20 | 341 | 1.6 | 11.3 | 0.00 | 0.05 | 0.05 | 66 | 1017.7 |
| 20260503044517 | 20 | 55 | 1.6 | 11.3 | 0.00 | 0.05 | 0.05 | 66 | 1017.9 |
| 20260503044011 | 20 | 318 | 0.0 | 6.4 | 0.00 | 0.05 | 0.05 | 65 | 1017.9 |
| 20260503043238 | 20 | 45 | 1.6 | 8.0 | 0.00 | 0.05 | 0.05 | 65 | 1017.9 |
| 20260503043210 | 20 | 286 | 1.6 | 11.3 | 0.00 | 0.05 | 0.05 | 64 | 1017.9 |
| 20260503042226 | 20 | 323 | 1.6 | 11.3 | 0.00 | 0.05 | 0.05 | 63 | 1017.9 |
| 20260503041721 | 20 | 34 | 1.6 | 6.4 | 0.00 | 0.05 | 0.05 | 63 | 1017.9 |
| 20260503041217 | 20 | 21 | 1.6 | 8.0 | 0.00 | 0.05 | 0.05 | 62 | 1017.9 |
| 20260503040930 | 20 | 30 | 3.2 | 16.1 | 0.00 | 0.05 | 0.05 | 61 | 1017.9 |
| 20260503040202 | 21 | 31 | 4.8 | 17.7 | 0.00 | 0.05 | 0.05 | 60 | 1017.9 |
| 20260503035658 | 21 | 348 | 4.8 | 17.7 | 0.00 | 0.05 | 0.05 | 61 | 1018.0 |
| 20260503035150 | 21 | 33 | 3.2 | 16.1 | 0.00 | 0.05 | 0.05 | 62 | 1017.9 |
| 20260503034646 | 20 | 46 | 1.6 | 12.9 | 0.00 | 0.05 | 0.05 | 64 | 1017.9 |
| 20260503034138 | 20 | 40 | 1.6 | 9.7 | 0.00 | 0.05 | 0.05 | 63 | 1018.1 |
| 20260503033633 | 20 | 11 | 1.6 | 9.7 | 0.00 | 0.05 | 0.05 | 64 | 1018.4 |
| 20260503033126 | 20 | 268 | 1.6 | 9.7 | 0.00 | 0.05 | 0.05 | 62 | 1018.5 |
| 20260503032621 | 20 | 266 | 1.6 | 14.5 | 0.00 | 0.05 | 0.05 | 63 | 1018.5 |
| 20260503032116 | 20 | 331 | 1.6 | 14.5 | 0.00 | 0.05 | 0.05 | 63 | 1018.5 |
| 20260503031608 | 20 | 15 | 1.6 | 9.7 | 0.00 | 0.05 | 0.05 | 64 | 1018.6 |
| 20260503031102 | 20 | 83 | 1.6 | 9.7 | 0.00 | 0.05 | 0.05 | 63 | 1018.7 |
| 20260503031042 | 20 | 62 | 0.0 | 9.7 | 0.00 | 0.05 | 0.05 | 64 | 1018.7 |
| 20260503030051 | 20 | 313 | 1.6 | 12.9 | 0.00 | 0.05 | 0.05 | 63 | 1018.8 |
| 20260503025546 | 20 | 9 | 1.6 | 12.9 | 0.00 | 0.05 | 0.05 | 62 | 1018.8 |
| 20260503025038 | 20 | 310 | 3.2 | 9.7 | 0.00 | 0.05 | 0.05 | 65 | 1018.8 |
| 20260503024532 | 20 | 320 | 3.2 | 11.3 | 0.00 | 0.05 | 0.05 | 64 | 1019.0 |
| 20260503024026 | 20 | 51 | 1.6 | 11.3 | 0.00 | 0.05 | 0.05 | 64 | 1019.1 |
| 20260503023520 | 20 | 310 | 1.6 | 11.3 | 0.00 | 0.05 | 0.05 | 65 | 1019.2 |
| 20260503023016 | 20 | 321 | 1.6 | 6.4 | 0.00 | 0.05 | 0.05 | 65 | 1019.3 |
| 20260503022511 | 20 | 13 | 0.0 | 6.4 | 0.00 | 0.05 | 0.05 | 66 | 1019.4 |
| 20260503022010 | 19 | 298 | 0.0 | 3.2 | 0.00 | 0.05 | 0.05 | 69 | 1019.5 |
| 20260503021510 | 19 | 279 | 1.6 | 9.7 | 0.00 | 0.05 | 0.05 | 71 | 1019.7 |
| 20260503021008 | 19 | 282 | 1.6 | 19.3 | 0.00 | 0.05 | 0.05 | 70 | 1019.8 |
| 20260503020507 | 19 | 353 | 1.6 | 19.3 | 0.00 | 0.05 | 0.05 | 67 | 1019.8 |
| 20260503020223 | 19 | 300 | 3.2 | 11.3 | 0.00 | 0.05 | 0.05 | 68 | 1019.9 |
| 20260503015504 | 19 | 29 | 1.6 | 8.0 | 0.00 | 0.05 | 0.05 | 68 | 1019.9 |
| 20260503015004 | 19 | 216 | 0.0 | 3.2 | 0.00 | 0.05 | 0.05 | 72 | 1020.2 |
| 20260503014504 | 18 | 31 | 0.0 | 3.2 | 0.00 | 0.05 | 0.05 | 73 | 1020.2 |
| 20260503014004 | 18 | 31 | 0.0 | 4.8 | 0.00 | 0.05 | 0.05 | 75 | 1020.3 |
| 20260503013504 | 17 | 211 | 0.0 | 4.8 | 0.00 | 0.05 | 0.05 | 77 | 1020.4 |
| 20260503013004 | 17 | 122 | 0.0 | 1.6 | 0.00 | 0.05 | 0.05 | 78 | 1020.6 |
| 20260503012503 | 17 | 43 | 0.0 | 3.2 | 0.00 | 0.05 | 0.05 | 79 | 1020.6 |
| 20260503012002 | 17 | 145 | 0.0 | 3.2 | 0.00 | 0.05 | 0.05 | 78 | 1020.7 |
| 20260503011724 | 17 | 255 | 0.0 | 1.6 | 0.00 | 0.05 | 0.05 | 81 | 1020.8 |
| 20260503011228 | 16 | 302 | 0.0 | 1.6 | 0.00 | 0.05 | 0.05 | 82 | 1020.9 |
| 20260503010504 | 16 | 191 | 0.0 | 1.6 | 0.00 | 0.05 | 0.05 | 83 | 1021.0 |
| 20260503010002 | 16 | 191 | 0.0 | 1.6 | 0.00 | 0.05 | 0.05 | 86 | 1021.0 |
| 20260503005458 | 15 | 216 | 0.0 | 1.6 | 0.00 | 0.05 | 0.05 | 88 | 1021.1 |
| 20260503004950 | 15 | 216 | 0.0 | 1.6 | 0.00 | 0.05 | 0.05 | 87 | 1021.1 |
| 20260503004447 | 15 | 216 | 0.0 | 0.0 | 0.00 | 0.05 | 0.05 | 87 | 1021.2 |
| 20260503003939 | 15 | 216 | 0.0 | 1.6 | 0.00 | 0.05 | 0.05 | 88 | 1021.2 |
| 20260503003433 | 15 | 216 | 0.0 | 4.8 | 0.00 | 0.05 | 0.05 | 88 | 1021.2 |
| 20260503002927 | 15 | 216 | 0.0 | 4.8 | 0.00 | 0.05 | 0.05 | 88 | 1021.3 |
| 20260503002426 | 15 | 185 | 0.0 | 3.2 | 0.00 | 0.05 | 0.05 | 88 | 1021.3 |
| 20260503001926 | 15 | 227 | 0.0 | 3.2 | 0.00 | 0.05 | 0.05 | 88 | 1021.3 |
| 20260503001648 | 15 | 259 | 0.0 | 1.6 | 0.00 | 0.05 | 0.05 | 87 | 1021.4 |
| 20260503000926 | 15 | 301 | 0.0 | 1.6 | 0.00 | 0.05 | 0.05 | 88 | 1021.4 |